Time;durP1;ratioP1;P1;durP2;ratioP2;P2;SDS_P1;SDS_P2;PMS_P1;PMS_P2;Temp;Humidity;BMP_temperature;BMP_pressure;BME280_temperature;BME280_humidity;BME280_pressure;Samples;Min_cycle;Max_cycle;Signal;HPM_P1;HPM_P2
2022/04/16 00:00:15;;;;;;;22.83;9.32;;;11.80;99.90;;;;;;5012667;28;20057;-78
2022/04/16 00:02:43;;;;;;;20.40;9.85;;;11.80;99.90;;;;;;5012297;28;20034;-78
2022/04/16 00:05:10;;;;;;;19.63;9.52;;;11.80;99.90;;;;;;5011942;28;20088;-79
2022/04/16 00:07:38;;;;;;;21.17;10.30;;;11.80;99.90;;;;;;5011669;28;20029;-78
2022/04/16 00:10:05;;;;;;;23.27;10.35;;;11.80;99.90;;;;;;5005191;28;20079;-79
2022/04/16 00:12:32;;;;;;;23.83;9.80;;;11.80;99.90;;;;;;5012632;28;20034;-78
2022/04/16 00:14:58;;;;;;;22.25;11.30;;;11.70;99.90;;;;;;5012128;28;20425;-79
2022/04/16 00:17:24;;;;;;;22.48;10.20;;;11.70;99.90;;;;;;5011181;28;20022;-80
2022/04/16 00:19:50;;;;;;;22.65;12.48;;;11.70;99.90;;;;;;5012260;28;20095;-79
2022/04/16 00:22:16;;;;;;;25.30;12.48;;;11.70;99.90;;;;;;5004762;28;20027;-77
2022/04/16 00:24:42;;;;;;;23.75;12.40;;;11.60;99.90;;;;;;5004857;28;20113;-77
2022/04/16 00:27:12;;;;;;;19.13;10.77;;;11.60;99.90;;;;;;5005079;28;20101;-77
2022/04/16 00:29:38;;;;;;;20.48;10.80;;;11.60;99.90;;;;;;5007339;28;20041;-77
2022/04/16 00:34:36;;;;;;;21.27;10.65;;;11.60;99.90;;;;;;4998589;28;20529;-76
2022/04/16 00:37:02;;;;;;;21.20;10.40;;;11.50;99.90;;;;;;4976669;28;20034;-76
2022/04/16 00:39:28;;;;;;;26.83;11.40;;;11.50;99.90;;;;;;4992497;28;20018;-75
2022/04/16 00:41:54;;;;;;;23.85;11.52;;;11.50;99.90;;;;;;4986595;28;20026;-76
2022/04/16 00:44:20;;;;;;;24.92;12.35;;;11.50;99.90;;;;;;4992457;28;20026;-76
2022/04/16 00:46:47;;;;;;;25.95;13.52;;;11.50;99.90;;;;;;4992090;28;20025;-75
2022/04/16 00:49:13;;;;;;;23.60;12.75;;;11.50;99.90;;;;;;4991978;28;20026;-75
2022/04/16 00:51:43;;;;;;;26.05;13.05;;;11.50;99.90;;;;;;4992347;28;20026;-75
2022/04/16 00:54:10;;;;;;;29.42;14.70;;;11.50;99.90;;;;;;4992568;28;20038;-76
2022/04/16 00:56:36;;;;;;;30.00;14.77;;;11.40;99.90;;;;;;4991954;28;20026;-75
2022/04/16 00:59:04;;;;;;;27.75;14.30;;;11.40;99.90;;;;;;4992199;28;20022;-75
2022/04/16 01:01:30;;;;;;;27.40;13.63;;;11.20;99.90;;;;;;4992329;28;20403;-76
2022/04/16 01:03:56;;;;;;;38.17;16.17;;;11.00;99.90;;;;;;4991977;28;20030;-75
2022/04/16 01:06:22;;;;;;;33.13;16.27;;;10.80;99.90;;;;;;4989526;28;20024;-75
2022/04/16 01:08:48;;;;;;;28.98;13.57;;;10.70;99.90;;;;;;4991707;28;20020;-76
2022/04/16 01:11:15;;;;;;;32.40;14.98;;;10.60;99.90;;;;;;4991704;28;20080;-75
2022/04/16 01:13:47;;;;;;;32.60;14.85;;;10.40;99.90;;;;;;4991450;28;20018;-75
2022/04/16 01:16:12;;;;;;;29.92;13.93;;;10.20;99.90;;;;;;4974656;28;20027;-75
2022/04/16 01:18:47;;;;;;;30.10;14.52;;;10.10;99.90;;;;;;4991269;28;20386;-75
2022/04/16 01:21:14;;;;;;;32.03;14.98;;;10.00;99.90;;;;;;4991316;28;20439;-76
2022/04/16 01:23:40;;;;;;;28.73;14.10;;;9.90;99.90;;;;;;4991544;28;20026;-75
2022/04/16 01:26:06;;;;;;;30.38;14.65;;;9.90;99.90;;;;;;4991434;28;20053;-75
2022/04/16 01:28:32;;;;;;;27.60;13.75;;;9.70;99.90;;;;;;4991282;28;20068;-75
2022/04/16 01:30:58;;;;;;;30.48;15.00;;;9.70;99.90;;;;;;4991767;28;20483;-75
2022/04/16 01:33:24;;;;;;;34.83;17.48;;;9.60;99.90;;;;;;5017537;23;20137;-78
2022/04/16 01:35:56;;;;;;;31.83;15.52;;;9.60;99.90;;;;;;5011294;28;20054;-78
2022/04/16 01:38:25;;;;;;;28.42;14.60;;;9.60;99.90;;;;;;5017819;28;20018;-78
2022/04/16 01:40:57;;;;;;;34.20;15.63;;;9.60;99.90;;;;;;5004174;28;20088;-78
2022/04/16 01:43:23;;;;;;;35.75;16.23;;;9.50;99.90;;;;;;4997882;28;20493;-78
2022/04/16 01:45:50;;;;;;;32.78;15.65;;;9.30;99.90;;;;;;5014886;28;20026;-78
2022/04/16 01:48:19;;;;;;;33.72;15.90;;;9.20;99.90;;;;;;5014699;28;20021;-78
2022/04/16 01:50:51;;;;;;;35.65;16.45;;;9.00;99.90;;;;;;5014633;28;20026;-78
2022/04/16 01:53:17;;;;;;;34.90;15.95;;;8.90;99.90;;;;;;5014990;28;20494;-78
2022/04/16 01:55:42;;;;;;;33.40;16.15;;;8.80;99.90;;;;;;5014987;28;20018;-78
2022/04/16 01:58:08;;;;;;;37.53;16.27;;;8.70;99.90;;;;;;5007737;28;20022;-78
2022/04/16 02:00:35;;;;;;;35.80;16.83;;;8.60;99.90;;;;;;5014755;28;20026;-78
2022/04/16 02:03:01;;;;;;;32.53;14.85;;;8.50;99.90;;;;;;5014341;28;20026;-78
2022/04/16 02:05:27;;;;;;;31.50;16.77;;;8.40;99.90;;;;;;5014439;28;20378;-78
2022/04/16 02:07:54;;;;;;;41.67;17.75;;;8.30;99.90;;;;;;5014824;28;20478;-78
2022/04/16 02:10:19;;;;;;;41.60;18.58;;;8.30;99.90;;;;;;5014482;28;20025;-78
2022/04/16 02:12:45;;;;;;;40.25;19.13;;;8.30;99.90;;;;;;5014268;28;20097;-78
2022/04/16 02:15:11;;;;;;;35.63;17.60;;;8.20;99.90;;;;;;5013148;28;20386;-78
2022/04/16 02:17:38;;;;;;;38.05;17.33;;;8.10;99.90;;;;;;5013317;28;20029;-78
2022/04/16 02:20:09;;;;;;;42.53;18.17;;;8.10;99.90;;;;;;5014011;28;20105;-78
2022/04/16 02:22:42;;;;;;;38.08;17.60;;;8.00;99.90;;;;;;5014425;28;20022;-78
2022/04/16 02:25:09;;;;;;;39.70;18.25;;;7.90;99.90;;;;;;5013401;28;20109;-78
2022/04/16 02:27:35;;;;;;;37.55;18.98;;;7.80;99.90;;;;;;5014179;28;20037;-78
2022/04/16 02:30:06;;;;;;;47.00;19.90;;;7.80;99.90;;;;;;5013933;28;20022;-78
2022/04/16 02:32:35;;;;;;;40.42;18.83;;;7.90;99.90;;;;;;5029398;23;20021;-75
2022/04/16 02:35:01;;;;;;;46.58;20.00;;;7.80;99.90;;;;;;5054125;28;20112;-75
2022/04/16 02:37:27;;;;;;;42.75;18.70;;;7.70;99.90;;;;;;5027149;28;20104;-75
2022/04/16 02:39:53;;;;;;;48.30;19.45;;;7.60;99.90;;;;;;5033608;28;20121;-76
2022/04/16 02:42:19;;;;;;;45.95;18.75;;;7.50;99.90;;;;;;5034238;28;20093;-75
2022/04/16 02:47:30;;;;;;;41.90;18.63;;;7.50;99.90;;;;;;5029372;28;20071;-75
2022/04/16 02:49:55;;;;;;;40.95;19.17;;;7.50;99.90;;;;;;5026864;28;20021;-75
2022/04/16 02:52:22;;;;;;;39.50;19.23;;;7.50;99.90;;;;;;5032878;28;20041;-75
2022/04/16 02:54:48;;;;;;;37.83;18.83;;;7.50;99.90;;;;;;5034285;28;20405;-75
2022/04/16 02:57:14;;;;;;;39.42;18.05;;;7.50;99.90;;;;;;5033196;28;20496;-75
2022/04/16 02:59:40;;;;;;;37.75;16.98;;;7.40;99.90;;;;;;5033486;28;20470;-75
2022/04/16 03:02:06;;;;;;;35.75;16.75;;;7.30;99.90;;;;;;5015301;28;20021;-75
2022/04/16 03:04:32;;;;;;;38.22;17.10;;;7.30;99.90;;;;;;5033022;28;20486;-75
2022/04/16 03:06:58;;;;;;;44.10;17.80;;;7.20;99.90;;;;;;5033459;28;20524;-76
2022/04/16 03:09:24;;;;;;;39.60;17.95;;;7.10;99.90;;;;;;5033167;28;20053;-75
2022/04/16 03:11:50;;;;;;;41.55;17.70;;;7.10;99.90;;;;;;5015342;28;20518;-75
2022/04/16 03:19:45;;;;;;;39.03;18.70;;;6.90;99.90;;;;;;5033023;28;20374;-75
2022/04/16 03:22:12;;;;;;;43.97;19.70;;;6.80;99.90;;;;;;5033258;28;20029;-75
2022/04/16 03:24:37;;;;;;;43.75;19.15;;;6.60;99.90;;;;;;5033162;28;20018;-76
2022/04/16 03:27:03;;;;;;;50.15;19.40;;;6.50;99.90;;;;;;5032942;28;20494;-75
2022/04/16 03:29:29;;;;;;;39.75;18.63;;;6.50;99.90;;;;;;5033193;28;20021;-75
2022/04/16 03:31:55;;;;;;;48.20;20.48;;;6.50;99.90;;;;;;5032211;28;20083;-75
2022/04/16 03:34:21;;;;;;;40.72;18.52;;;6.50;99.90;;;;;;5039415;28;20355;-75
2022/04/16 03:36:47;;;;;;;36.42;18.10;;;6.40;99.90;;;;;;5032758;28;20102;-75
2022/04/16 03:39:12;;;;;;;46.25;18.77;;;6.50;99.90;;;;;;5032975;28;20551;-76
2022/04/16 03:41:38;;;;;;;46.35;18.88;;;6.50;99.90;;;;;;5032706;28;20017;-75
2022/04/16 03:44:05;;;;;;;39.95;19.02;;;6.50;99.90;;;;;;5032613;28;20159;-75
2022/04/16 03:46:30;;;;;;;43.17;19.00;;;6.50;99.90;;;;;;5014151;28;20393;-75
2022/04/16 03:48:56;;;;;;;46.88;18.23;;;6.40;99.90;;;;;;5032385;28;20026;-75
2022/04/16 03:51:22;;;;;;;47.85;19.75;;;6.40;99.90;;;;;;5032550;28;20805;-75
2022/04/16 03:53:48;;;;;;;43.38;18.00;;;6.40;99.90;;;;;;5032484;28;20084;-75
2022/04/16 04:01:42;;;;;;;53.88;20.13;;;6.20;99.90;;;;;;5025191;28;20082;-75
2022/04/16 04:04:08;;;;;;;49.35;19.52;;;6.10;99.90;;;;;;5006938;23;20042;-79
2022/04/16 04:06:33;;;;;;;46.73;19.60;;;6.00;99.90;;;;;;4992726;28;20022;-79
2022/04/16 04:08:59;;;;;;;48.03;20.15;;;5.90;99.90;;;;;;4992765;28;20037;-78
2022/04/16 04:11:25;;;;;;;52.17;20.50;;;5.90;99.90;;;;;;4992834;28;21470;-78
2022/04/16 04:13:50;;;;;;;53.95;22.05;;;5.90;99.90;;;;;;4992863;28;20030;-79
2022/04/16 04:16:16;;;;;;;52.67;21.20;;;5.90;99.90;;;;;;4992902;28;20026;-78
2022/04/16 04:18:42;;;;;;;54.77;21.80;;;5.90;99.90;;;;;;4991403;28;20026;-78
2022/04/16 04:21:07;;;;;;;54.90;21.73;;;5.90;99.90;;;;;;4992921;28;20566;-79
2022/04/16 04:23:33;;;;;;;50.57;21.10;;;5.80;99.90;;;;;;4992662;28;20026;-78
2022/04/16 04:25:59;;;;;;;48.10;20.55;;;5.80;99.90;;;;;;4992657;28;20026;-79
2022/04/16 04:28:25;;;;;;;56.78;20.30;;;5.80;99.90;;;;;;4992573;28;20026;-78
2022/04/16 04:30:51;;;;;;;49.93;20.43;;;5.80;99.90;;;;;;4992457;28;20038;-78
2022/04/16 04:33:17;;;;;;;51.63;20.65;;;5.80;99.90;;;;;;4991558;28;20085;-79
2022/04/16 04:35:42;;;;;;;51.93;20.43;;;5.80;99.90;;;;;;4992190;28;20022;-78
2022/04/16 04:38:08;;;;;;;56.93;22.87;;;5.80;99.90;;;;;;4992297;28;20030;-79
2022/04/16 04:40:34;;;;;;;58.87;23.87;;;5.80;99.90;;;;;;4992633;28;20165;-78
2022/04/16 04:42:59;;;;;;;62.97;23.27;;;5.80;99.90;;;;;;4974336;28;20023;-79
2022/04/16 04:45:25;;;;;;;61.33;23.80;;;5.70;99.90;;;;;;4991945;28;20277;-78
2022/04/16 04:47:51;;;;;;;51.83;21.60;;;5.60;99.90;;;;;;4974385;28;20027;-79
2022/04/16 04:50:16;;;;;;;59.47;22.73;;;5.50;99.90;;;;;;4992214;28;20062;-79
2022/04/16 04:52:42;;;;;;;55.17;22.63;;;5.50;99.90;;;;;;4974813;28;20018;-78
2022/04/16 04:55:11;;;;;;;59.37;23.33;;;5.50;99.90;;;;;;4991896;28;20026;-79
2022/04/16 04:57:38;;;;;;;60.90;24.50;;;5.50;99.90;;;;;;4992011;28;20022;-78
2022/04/16 05:00:09;;;;;;;62.93;23.40;;;5.40;99.90;;;;;;4991958;28;20023;-78
2022/04/16 05:02:45;;;;;;;57.63;23.10;;;5.40;99.90;;;;;;4998378;28;20029;-78
2022/04/16 05:05:11;;;;;;;67.85;24.77;;;5.40;99.90;;;;;;4992148;28;20061;-78
2022/04/16 05:07:37;;;;;;;60.58;25.02;;;5.40;99.90;;;;;;4991571;28;20022;-79
2022/04/16 05:10:04;;;;;;;65.00;25.73;;;5.40;99.90;;;;;;4973991;28;20111;-78
2022/04/16 05:12:30;;;;;;;63.78;25.33;;;5.40;99.90;;;;;;4992101;28;20501;-78
2022/04/16 05:14:55;;;;;;;69.45;26.95;;;5.40;99.90;;;;;;4973876;28;20118;-78
2022/04/16 05:17:21;;;;;;;60.23;25.23;;;5.40;99.90;;;;;;4990783;28;20567;-78
2022/04/16 05:19:47;;;;;;;62.50;25.37;;;5.50;99.90;;;;;;4991962;28;20498;-78
2022/04/16 05:22:12;;;;;;;56.73;24.20;;;5.40;99.90;;;;;;4991985;28;20022;-79
2022/04/16 05:24:38;;;;;;;58.83;23.83;;;5.50;99.90;;;;;;4991735;28;20029;-79
2022/04/16 05:27:04;;;;;;;63.77;25.00;;;5.50;99.90;;;;;;4991849;28;20829;-79
2022/04/16 05:29:48;;;;;;;62.53;24.97;;;5.60;99.90;;;;;;4991645;28;20026;-78
2022/04/16 05:34:54;;;;;;;52.97;23.43;;;5.60;99.90;;;;;;5046792;28;20094;-75
2022/04/16 05:37:20;;;;;;;58.40;23.07;;;5.60;99.90;;;;;;5042806;28;20067;-75
2022/04/16 05:39:45;;;;;;;56.47;25.23;;;5.60;99.90;;;;;;5030805;28;20021;-75
2022/04/16 05:42:12;;;;;;;55.57;22.90;;;5.60;99.90;;;;;;5031041;28;20108;-75
2022/04/16 05:44:38;;;;;;;53.53;22.03;;;5.70;99.90;;;;;;5013344;28;20432;-75
2022/04/16 05:47:04;;;;;;;54.07;24.67;;;5.70;99.90;;;;;;5031299;28;20021;-75
2022/04/16 05:49:30;;;;;;;58.40;23.90;;;5.60;99.90;;;;;;5030873;28;20083;-75
2022/04/16 05:51:55;;;;;;;58.00;23.42;;;5.60;99.90;;;;;;5031045;28;20389;-75
2022/04/16 05:54:21;;;;;;;51.77;23.57;;;5.70;99.90;;;;;;5030985;28;20020;-75
2022/04/16 05:56:47;;;;;;;64.03;26.03;;;5.80;99.90;;;;;;5031038;28;20028;-75
2022/04/16 05:59:13;;;;;;;61.10;25.75;;;5.90;99.90;;;;;;5030931;28;20385;-76
2022/04/16 06:01:39;;;;;;;60.15;25.75;;;5.90;99.90;;;;;;5037907;28;20026;-75
2022/04/16 06:04:04;;;;;;;54.42;23.42;;;6.00;99.90;;;;;;5030614;28;21252;-75
2022/04/16 06:06:30;;;;;;;46.10;21.38;;;6.10;99.90;;;;;;5031138;28;20498;-75
2022/04/16 06:08:55;;;;;;;58.33;23.20;;;6.30;99.90;;;;;;5031051;28;20032;-75
2022/04/16 06:11:25;;;;;;;48.53;22.15;;;6.40;99.90;;;;;;5013125;28;20033;-76
2022/04/16 06:13:50;;;;;;;52.33;21.80;;;6.50;99.90;;;;;;5030926;28;20025;-75
2022/04/16 06:16:16;;;;;;;52.83;21.00;;;6.70;99.90;;;;;;5030656;28;20044;-75
2022/04/16 06:18:42;;;;;;;49.58;22.25;;;6.70;99.90;;;;;;5029394;28;20022;-75
2022/04/16 06:21:08;;;;;;;54.17;23.25;;;6.90;99.90;;;;;;5030295;28;20533;-75
2022/04/16 06:23:33;;;;;;;53.75;21.75;;;7.10;99.90;;;;;;5030472;28;20068;-75
2022/04/16 06:25:59;;;;;;;56.63;22.08;;;7.20;99.90;;;;;;5031499;28;20049;-75
2022/04/16 06:28:25;;;;;;;56.53;23.73;;;7.40;99.90;;;;;;5016558;28;20120;-75
2022/04/16 06:30:51;;;;;;;57.28;22.95;;;7.50;99.90;;;;;;5034178;28;20034;-75
2022/04/16 06:33:16;;;;;;;60.50;24.00;;;7.60;99.90;;;;;;5043226;22;20470;-78
2022/04/16 06:35:42;;;;;;;53.53;23.52;;;7.80;99.90;;;;;;5000186;28;20517;-78
2022/04/16 06:38:08;;;;;;;65.18;26.67;;;7.90;99.90;;;;;;5014022;28;20034;-78
2022/04/16 06:40:33;;;;;;;55.85;24.95;;;8.00;99.90;;;;;;5013702;28;20692;-78
2022/04/16 06:42:59;;;;;;;60.25;26.40;;;8.10;99.90;;;;;;5014246;28;20063;-78
2022/04/16 06:45:25;;;;;;;56.88;25.23;;;8.30;99.90;;;;;;5009641;28;20026;-78
2022/04/16 06:47:51;;;;;;;57.67;26.45;;;8.40;99.90;;;;;;5013156;28;20053;-78
2022/04/16 06:50:16;;;;;;;56.00;25.42;;;8.60;99.90;;;;;;5013542;28;20026;-79
2022/04/16 06:52:42;;;;;;;61.85;27.50;;;8.70;99.90;;;;;;5013855;28;20026;-79
2022/04/16 06:55:08;;;;;;;64.55;28.70;;;8.80;99.90;;;;;;5013860;28;20030;-79
2022/04/16 06:57:34;;;;;;;67.57;31.05;;;9.00;99.90;;;;;;5012579;28;20117;-79
2022/04/16 06:59:59;;;;;;;60.25;27.75;;;9.30;99.90;;;;;;5011531;28;20026;-79
2022/04/16 07:02:25;;;;;;;59.78;28.02;;;9.50;99.90;;;;;;5018347;28;20072;-79
2022/04/16 07:04:51;;;;;;;60.97;29.10;;;9.60;99.90;;;;;;5013446;28;20041;-79
2022/04/16 07:07:16;;;;;;;57.70;27.63;;;9.80;99.90;;;;;;5013311;28;20390;-78
2022/04/16 07:09:42;;;;;;;65.30;28.73;;;9.90;99.90;;;;;;5013572;28;20030;-79
2022/04/16 07:12:12;;;;;;;62.35;29.52;;;10.00;99.90;;;;;;5013174;28;20478;-79
2022/04/16 07:14:39;;;;;;;61.03;28.60;;;10.10;99.90;;;;;;5013501;28;20461;-79
2022/04/16 07:17:08;;;;;;;60.72;29.38;;;10.30;99.90;;;;;;5005646;28;20026;-79
2022/04/16 07:19:35;;;;;;;60.53;29.60;;;10.50;99.90;;;;;;5012833;28;20470;-79
2022/04/16 07:22:01;;;;;;;65.85;31.35;;;10.50;99.90;;;;;;5012728;28;20097;-79
2022/04/16 07:24:27;;;;;;;66.57;31.08;;;10.70;99.90;;;;;;5012950;28;20017;-79
2022/04/16 07:26:54;;;;;;;62.30;29.77;;;10.80;99.90;;;;;;4995753;28;20026;-79
2022/04/16 07:29:21;;;;;;;66.40;31.55;;;10.80;99.90;;;;;;5013527;28;20390;-79
2022/04/16 07:31:47;;;;;;;62.70;31.17;;;11.00;99.90;;;;;;5013219;28;20033;-79
2022/04/16 08:33:46;;;;;;;53.17;32.10;;;14.10;99.90;;;;;;5517008;23;20041;-73
2022/04/16 08:36:12;;;;;;;50.97;29.10;;;14.30;99.90;;;;;;5031817;28;20035;-74
2022/04/16 08:38:38;;;;;;;53.60;31.02;;;14.50;99.90;;;;;;5030343;28;20022;-74
2022/04/16 08:41:05;;;;;;;48.05;30.27;;;14.70;99.00;;;;;;5031088;28;20090;-75
2022/04/16 08:43:33;;;;;;;51.15;31.13;;;14.80;98.10;;;;;;5028410;28;20057;-78
2022/04/16 08:46:00;;;;;;;48.58;30.52;;;15.10;96.80;;;;;;5011462;28;20108;-76
2022/04/16 08:48:26;;;;;;;49.03;29.98;;;15.50;96.70;;;;;;5028535;28;20087;-75
2022/04/16 08:50:52;;;;;;;46.25;29.83;;;16.20;94.80;;;;;;5022105;28;20084;-78
2022/04/16 08:53:18;;;;;;;47.45;28.02;;;17.10;92.30;;;;;;5030011;28;20017;-78
2022/04/16 08:55:44;;;;;;;47.03;28.23;;;17.70;88.50;;;;;;5029848;28;20009;-76
2022/04/16 08:58:09;;;;;;;43.30;27.33;;;17.70;86.20;;;;;;5012691;28;20037;-77
2022/04/16 09:00:35;;;;;;;38.42;26.23;;;17.70;88.20;;;;;;5030698;28;20466;-77
2022/04/16 09:03:03;;;;;;;37.63;25.73;;;18.00;84.80;;;;;;5030767;28;20028;-78
2022/04/16 09:05:30;;;;;;;38.75;26.65;;;18.50;80.20;;;;;;5031189;28;20466;-79
2022/04/16 09:07:57;;;;;;;43.30;27.35;;;18.80;74.10;;;;;;5031134;28;20491;-76
2022/04/16 09:10:30;;;;;;;38.00;25.55;;;18.60;75.50;;;;;;5013440;28;20025;-75
2022/04/16 09:12:57;;;;;;;37.10;25.63;;;18.90;78.40;;;;;;5031158;28;20022;-77
2022/04/16 09:15:24;;;;;;;33.10;23.80;;;19.40;70.70;;;;;;5024277;28;20025;-77
2022/04/16 09:18:00;;;;;;;34.30;23.75;;;19.80;72.80;;;;;;5031364;28;21479;-76
2022/04/16 09:20:44;;;;;;;37.85;25.35;;;20.10;68.10;;;;;;5031235;28;20028;-78
2022/04/16 09:23:18;;;;;;;40.70;26.10;;;20.40;68.00;;;;;;5013478;28;20036;-75
2022/04/16 09:25:44;;;;;;;35.90;25.45;;;20.00;67.70;;;;;;5031058;28;20033;-79
2022/04/16 09:28:13;;;;;;;34.05;23.20;;;20.60;64.20;;;;;;5030104;28;20028;-76
2022/04/16 09:30:52;;;;;;;36.50;25.20;;;20.70;66.50;;;;;;5030341;28;20079;-80
2022/04/16 11:03:56;;;;;;;17.95;13.32;;;30.10;33.80;;;;;;5534480;22;20091;-77
2022/04/16 11:06:33;;;;;;;18.25;11.90;;;29.40;34.30;;;;;;5032511;28;20029;-77
2022/04/16 11:08:59;;;;;;;15.85;10.77;;;29.20;35.60;;;;;;5010971;28;20045;-77
2022/04/16 11:11:25;;;;;;;17.35;9.30;;;29.40;34.00;;;;;;5012696;28;20042;-75
2022/04/16 11:13:51;;;;;;;13.02;9.55;;;29.80;33.90;;;;;;5013478;28;20064;-76
2022/04/16 11:16:22;;;;;;;12.18;9.50;;;30.70;33.20;;;;;;4995869;28;20030;-76
2022/04/16 11:18:48;;;;;;;10.32;7.68;;;29.90;33.10;;;;;;5012653;28;20075;-77
2022/04/16 11:21:22;;;;;;;9.40;6.68;;;30.30;31.50;;;;;;5013000;28;20579;-77
2022/04/16 11:23:50;;;;;;;11.45;8.13;;;31.10;32.00;;;;;;5012736;28;20607;-77
2022/04/16 11:34:32;;;;;;;9.80;7.38;;;31.50;28.90;;;;;;5007473;28;20100;-76
2022/04/16 11:36:59;;;;;;;8.88;6.63;;;31.40;29.30;;;;;;5011397;28;20441;-76
2022/04/16 11:39:34;;;;;;;9.80;7.32;;;32.00;29.60;;;;;;4998924;28;20034;-77
2022/04/16 11:42:05;;;;;;;12.50;8.80;;;30.70;30.10;;;;;;5011812;28;20030;-75
2022/04/16 11:44:41;;;;;;;10.25;7.70;;;30.40;29.80;;;;;;5012799;28;20049;-76
2022/04/16 11:47:20;;;;;;;8.32;6.72;;;30.90;31.30;;;;;;5021237;28;20060;-76
2022/04/16 11:49:51;;;;;;;14.50;8.15;;;30.80;30.40;;;;;;5015701;28;20022;-75
2022/04/16 11:52:26;;;;;;;12.85;9.75;;;31.50;29.00;;;;;;5019914;28;20116;-75
2022/04/16 11:55:28;;;;;;;17.05;10.82;;;31.90;29.20;;;;;;5012779;28;20390;-76
2022/04/16 11:57:53;;;;;;;15.25;11.60;;;31.40;30.30;;;;;;4934141;29;20479;-76
2022/04/16 12:00:21;;;;;;;16.30;12.15;;;30.60;29.70;;;;;;4982808;28;20116;-75
2022/04/16 13:05:02;;;;;;;17.63;11.65;;;32.50;30.40;;;;;;5007922;23;20050;-77
2022/04/16 13:07:27;;;;;;;13.10;10.57;;;32.60;28.70;;;;;;4987051;28;20180;-77
2022/04/16 13:09:53;;;;;;;14.43;10.77;;;33.50;27.60;;;;;;4988222;28;20022;-77
2022/04/16 13:12:19;;;;;;;13.50;9.75;;;32.60;27.80;;;;;;4990321;28;20029;-77
2022/04/16 13:14:48;;;;;;;14.05;10.43;;;31.90;29.90;;;;;;4990616;28;20050;-77
2022/04/16 13:17:14;;;;;;;15.10;11.48;;;33.50;29.00;;;;;;4991012;28;20029;-77
2022/04/16 13:19:40;;;;;;;16.17;10.10;;;32.70;27.50;;;;;;4990063;28;20026;-78
2022/04/16 13:22:08;;;;;;;15.73;11.02;;;33.90;28.70;;;;;;4990117;28;20038;-77
2022/04/16 13:24:35;;;;;;;12.75;10.25;;;33.70;27.40;;;;;;4990830;28;20054;-78
2022/04/16 13:27:03;;;;;;;14.02;10.15;;;31.90;28.90;;;;;;4986480;28;20398;-78
2022/04/16 13:29:29;;;;;;;12.30;8.57;;;33.60;27.70;;;;;;4975978;28;20030;-78
2022/04/16 13:31:56;;;;;;;11.98;9.88;;;33.10;28.20;;;;;;4978329;28;20038;-77
2022/04/16 13:34:22;;;;;;;12.35;9.88;;;32.90;27.70;;;;;;4979633;28;20026;-77
2022/04/16 13:36:48;;;;;;;9.30;7.00;;;33.10;26.40;;;;;;4978766;28;20113;-77
2022/04/16 13:41:59;;;;;;;10.65;7.78;;;33.50;26.10;;;;;;4974579;28;20514;-78
2022/04/16 13:44:24;;;;;;;11.77;7.10;;;32.90;26.20;;;;;;4976509;28;20027;-78
2022/04/16 13:46:51;;;;;;;10.55;8.38;;;32.50;27.20;;;;;;4977053;28;20027;-78
2022/04/16 13:49:17;;;;;;;10.60;8.02;;;33.50;26.90;;;;;;4979166;28;20419;-78
2022/04/16 13:51:43;;;;;;;12.98;9.90;;;32.90;26.70;;;;;;4978929;28;20069;-78
2022/04/16 13:54:10;;;;;;;11.07;8.95;;;30.60;27.50;;;;;;4988780;28;20061;-78
2022/04/16 13:56:36;;;;;;;9.07;7.95;;;30.60;29.80;;;;;;4993690;28;20022;-77
2022/04/16 13:59:02;;;;;;;11.13;7.68;;;30.50;29.80;;;;;;4990362;28;20022;-78
2022/04/16 14:01:28;;;;;;;9.23;7.55;;;31.20;28.70;;;;;;4961331;28;20039;-77
2022/04/16 14:03:54;;;;;;;10.55;7.47;;;31.00;28.30;;;;;;4997408;23;20554;-77
2022/04/16 14:06:21;;;;;;;6.88;6.10;;;32.60;27.30;;;;;;4961085;28;20042;-77
2022/04/16 14:08:47;;;;;;;8.80;6.03;;;32.80;26.90;;;;;;4964860;28;20369;-78
2022/04/16 14:11:15;;;;;;;9.07;6.30;;;33.10;25.90;;;;;;4972033;28;20471;-78
2022/04/16 14:13:41;;;;;;;7.22;4.70;;;33.20;25.40;;;;;;4971838;28;20023;-79
2022/04/16 14:16:10;;;;;;;5.97;3.97;;;33.40;25.10;;;;;;4951311;28;20030;-80
2022/04/16 14:18:38;;;;;;;4.88;3.83;;;32.90;25.00;;;;;;4972145;28;20027;-79
2022/04/16 14:21:08;;;;;;;4.32;3.22;;;31.10;25.50;;;;;;4954496;28;20031;-79
2022/04/16 14:23:40;;;;;;;5.05;3.80;;;31.30;25.60;;;;;;4974191;28;20054;-78
2022/04/16 14:26:08;;;;;;;5.60;4.07;;;32.10;25.20;;;;;;4958040;28;20117;-79
2022/04/16 14:28:35;;;;;;;6.63;4.07;;;32.00;25.00;;;;;;4958838;28;20052;-79
2022/04/16 14:31:02;;;;;;;6.53;3.28;;;32.50;25.30;;;;;;4954801;28;20103;-79
2022/04/16 14:33:32;;;;;;;3.90;2.90;;;32.10;24.30;;;;;;4960242;28;20035;-78
2022/04/16 14:35:58;;;;;;;2.60;2.30;;;31.00;24.80;;;;;;4955722;28;20121;-78
2022/04/16 14:38:24;;;;;;;3.22;2.42;;;31.40;26.30;;;;;;4965443;28;20078;-78
2022/04/16 14:40:53;;;;;;;2.78;2.35;;;32.60;24.80;;;;;;4971332;28;20034;-79
2022/04/16 14:43:19;;;;;;;2.85;1.85;;;32.50;25.30;;;;;;4972570;28;20023;-77
2022/04/16 14:45:45;;;;;;;2.10;1.90;;;32.50;24.10;;;;;;4972211;28;20600;-77
2022/04/16 14:48:12;;;;;;;2.17;1.80;;;31.30;23.70;;;;;;4972454;28;20058;-77
2022/04/16 14:50:37;;;;;;;2.88;1.90;;;31.90;25.10;;;;;;4973980;28;20033;-78
2022/04/16 14:53:06;;;;;;;2.20;1.48;;;30.80;25.00;;;;;;4974138;28;20023;-77
2022/04/16 14:55:36;;;;;;;2.42;1.60;;;30.60;25.00;;;;;;4974010;28;20019;-78
2022/04/16 14:58:04;;;;;;;3.00;1.65;;;30.60;25.00;;;;;;4972968;28;20090;-78
2022/04/16 15:00:31;;;;;;;2.53;1.60;;;30.00;24.80;;;;;;4972373;28;20099;-78
2022/04/16 15:02:56;;;;;;;2.50;1.17;;;30.30;25.60;;;;;;4987873;23;20486;-76
2022/04/16 15:05:22;;;;;;;1.88;1.05;;;30.00;25.00;;;;;;4971588;28;20118;-77
2022/04/16 15:07:48;;;;;;;1.00;0.80;;;31.30;25.00;;;;;;4973407;28;20065;-77
2022/04/16 15:10:13;;;;;;;1.98;0.85;;;31.60;24.50;;;;;;4973697;28;20101;-75
2022/04/16 15:12:39;;;;;;;1.73;1.33;;;31.10;23.90;;;;;;4973729;28;20055;-76
2022/04/16 15:15:06;;;;;;;1.95;1.23;;;29.30;24.70;;;;;;4973581;28;20025;-77
2022/04/16 15:17:37;;;;;;;1.00;0.90;;;28.80;25.90;;;;;;4973161;28;20034;-76
2022/04/16 15:20:03;;;;;;;1.63;0.70;;;28.50;25.40;;;;;;4973327;28;20106;-76
2022/04/16 15:22:29;;;;;;;0.80;0.80;;;29.70;24.30;;;;;;4956185;28;20037;-79
2022/04/16 15:24:55;;;;;;;1.30;1.20;;;28.90;24.40;;;;;;4963541;28;20027;-78
2022/04/16 15:27:20;;;;;;;1.63;1.38;;;28.40;26.10;;;;;;4969722;28;20030;-77
2022/04/16 15:29:46;;;;;;;1.60;1.30;;;29.10;24.90;;;;;;4951778;28;20613;-80
2022/04/16 15:32:12;;;;;;;1.65;0.77;;;29.20;25.10;;;;;;4961444;28;20015;-79
2022/04/16 15:34:37;;;;;;;2.50;0.95;;;28.90;25.20;;;;;;4951662;28;20031;-77
2022/04/16 15:37:03;;;;;;;1.25;0.80;;;29.50;24.10;;;;;;4966707;28;20027;-77
2022/04/16 15:39:30;;;;;;;1.92;1.10;;;29.50;25.70;;;;;;4967204;28;20084;-76
2022/04/16 15:42:01;;;;;;;1.67;0.93;;;29.00;23.50;;;;;;4965805;28;20585;-77
2022/04/16 15:44:27;;;;;;;2.08;1.02;;;29.70;25.00;;;;;;4967336;28;20054;-78
2022/04/16 15:46:53;;;;;;;1.10;0.95;;;29.80;24.60;;;;;;4966534;28;20436;-79
2022/04/16 15:49:18;;;;;;;1.55;1.20;;;30.50;23.40;;;;;;4966385;28;20026;-77
2022/04/16 15:51:44;;;;;;;2.38;1.50;;;29.00;24.50;;;;;;4967185;28;20034;-78
2022/04/16 15:54:10;;;;;;;2.60;1.30;;;27.40;26.10;;;;;;4965638;28;20077;-77
2022/04/16 15:56:35;;;;;;;3.58;1.60;;;27.70;26.60;;;;;;4965884;28;20073;-77
2022/04/16 15:59:02;;;;;;;1.65;1.30;;;27.20;27.30;;;;;;4966038;28;20400;-76
2022/04/16 16:01:29;;;;;;;2.35;1.48;;;26.70;27.40;;;;;;4961382;28;20055;-76
2022/04/16 16:03:54;;;;;;;1.65;1.50;;;26.30;26.70;;;;;;4952291;28;20106;-77
2022/04/16 16:06:20;;;;;;;1.90;1.40;;;25.60;26.40;;;;;;4966147;28;20740;-76
2022/04/16 16:08:52;;;;;;;2.78;1.65;;;25.20;28.30;;;;;;4966342;28;20018;-76
2022/04/16 16:11:23;;;;;;;2.78;1.50;;;24.30;29.60;;;;;;4947931;28;20037;-77
2022/04/16 16:13:49;;;;;;;2.03;1.70;;;23.90;28.50;;;;;;4965779;28;20129;-77
2022/04/16 16:16:15;;;;;;;2.80;1.75;;;23.60;29.20;;;;;;4965796;28;20446;-76
2022/04/16 16:18:44;;;;;;;3.08;2.10;;;22.90;30.50;;;;;;4965330;28;20019;-76
2022/04/16 16:21:10;;;;;;;4.40;1.90;;;22.50;31.80;;;;;;4962336;28;20038;-76
2022/04/16 16:23:37;;;;;;;3.33;2.20;;;22.50;31.40;;;;;;4965958;28;20026;-76
2022/04/16 16:26:03;;;;;;;3.20;1.77;;;22.50;30.90;;;;;;4966107;28;20026;-76
2022/04/16 16:28:28;;;;;;;2.65;1.83;;;22.40;32.50;;;;;;4965463;28;20024;-75
2022/04/16 16:30:54;;;;;;;3.97;2.40;;;22.60;33.00;;;;;;4965269;28;20048;-75
2022/04/16 16:33:20;;;;;;;6.00;3.67;;;22.00;32.50;;;;;;4969851;23;20047;-78
2022/04/16 16:35:46;;;;;;;6.50;2.97;;;21.80;34.00;;;;;;4963319;28;20054;-77